createdAt,value
2023-01-20T00:02:16.632Z,100243.00
2023-01-20T00:04:51.460Z,100242.00
2023-01-20T00:07:21.313Z,100234.00
2023-01-20T00:09:51.193Z,100236.00
2023-01-20T00:12:21.129Z,100245.00
2023-01-20T00:14:51.006Z,100251.00
2023-01-20T00:17:20.904Z,100243.00
2023-01-20T00:19:53.333Z,100247.00
2023-01-20T00:22:24.250Z,100252.00
2023-01-20T00:24:54.099Z,100258.00
2023-01-20T00:27:24.032Z,100250.00
2023-01-20T00:29:54.113Z,100248.00
2023-01-20T00:32:23.970Z,100255.00
2023-01-20T00:34:56.404Z,100252.00
2023-01-20T00:37:26.233Z,100257.00
2023-01-20T00:39:56.093Z,100270.00
2023-01-20T00:42:26.061Z,100274.00
2023-01-20T00:44:55.891Z,100268.00
2023-01-20T00:47:25.839Z,100268.00
2023-01-20T00:49:58.286Z,100272.00
2023-01-20T00:52:30.364Z,100274.00
2023-01-20T00:55:00.197Z,100268.00
2023-01-20T00:57:30.072Z,100275.00
2023-01-20T00:59:59.906Z,100276.00
2023-01-20T01:02:29.870Z,100286.00
2023-01-20T01:05:02.308Z,100293.00
2023-01-20T01:07:32.146Z,100293.00
2023-01-20T01:10:02.007Z,100297.00
2023-01-20T01:12:31.911Z,100292.00
2023-01-20T01:15:01.746Z,100300.00
2023-01-20T01:17:31.702Z,100306.00
2023-01-20T01:20:04.329Z,100304.00
2023-01-20T01:22:35.485Z,100302.00
2023-01-20T01:25:05.443Z,100300.00
2023-01-20T01:27:35.579Z,100304.00
2023-01-20T01:30:06.282Z,100304.00
2023-01-20T01:32:36.224Z,100307.00
2023-01-20T01:35:09.841Z,100315.00
2023-01-20T01:37:39.694Z,100317.00
2023-01-20T01:40:12.253Z,100320.00
2023-01-20T01:42:42.989Z,100314.00
2023-01-20T01:45:27.688Z,100318.00
2023-01-20T01:48:05.009Z,100332.00
2023-01-20T01:50:42.837Z,100325.00
2023-01-20T01:53:13.667Z,100331.00
2023-01-20T01:55:49.012Z,100341.00
2023-01-20T01:58:24.140Z,100338.00
2023-01-20T02:00:54.275Z,100333.00
2023-01-20T02:03:24.749Z,100336.00
2023-01-20T02:05:58.753Z,100341.00
2023-01-20T02:08:28.967Z,100344.00
2023-01-20T02:10:58.848Z,100347.00
2023-01-20T02:13:28.799Z,100352.00
2023-01-20T02:16:10.052Z,100363.00
2023-01-20T02:18:54.446Z,100365.00
2023-01-20T02:22:14.084Z,100364.00
2023-01-20T02:25:12.376Z,100367.00
2023-01-20T02:28:25.580Z,100365.00
2023-01-20T02:31:17.039Z,100376.00
2023-01-20T02:33:59.391Z,100379.00
2023-01-20T02:36:37.085Z,100390.00
2023-01-20T02:39:13.884Z,100395.00
2023-01-20T02:42:02.065Z,100397.00
2023-01-20T02:44:40.071Z,100407.00
2023-01-20T02:47:15.380Z,100403.00
2023-01-20T02:49:56.343Z,100403.00
2023-01-20T02:52:30.109Z,100408.00
2023-01-20T02:55:05.334Z,100409.00
2023-01-20T02:57:40.648Z,100414.00
2023-01-20T03:00:17.765Z,100413.00
2023-01-20T03:02:51.369Z,100423.00
2023-01-20T03:05:27.530Z,100424.00
2023-01-20T03:07:58.805Z,100427.00
2023-01-20T03:10:33.483Z,100423.00
2023-01-20T03:13:05.888Z,100422.00
2023-01-20T03:15:53.556Z,100429.00
2023-01-20T03:18:23.828Z,100434.00
2023-01-20T03:20:56.399Z,100440.00
2023-01-20T03:23:26.417Z,100437.00
2023-01-20T03:25:58.339Z,100435.00
2023-01-20T03:28:28.375Z,100432.00
2023-01-20T03:31:00.309Z,100436.00
2023-01-20T03:33:30.276Z,100440.00
2023-01-20T03:36:02.779Z,100450.00
2023-01-20T03:38:32.691Z,100445.00
2023-01-20T03:41:09.016Z,100454.00
2023-01-20T03:43:47.523Z,100444.00
2023-01-20T03:46:31.345Z,100459.00
2023-01-20T03:49:09.910Z,100450.00
2023-01-20T03:51:59.481Z,100464.00
2023-01-20T03:54:37.306Z,100467.00
2023-01-20T03:57:13.643Z,100468.00
2023-01-20T03:59:46.097Z,100474.00
2023-01-20T04:02:16.222Z,100474.00
2023-01-20T04:04:49.492Z,100476.00
2023-01-20T04:07:25.775Z,100476.00
2023-01-20T04:10:01.632Z,100471.00
2023-01-20T04:12:31.910Z,100475.00
2023-01-20T04:15:03.433Z,100474.00
2023-01-20T04:17:34.089Z,100481.00
2023-01-20T04:20:10.432Z,100484.00
2023-01-20T04:22:51.680Z,100482.00
2023-01-20T04:25:28.021Z,100485.00
2023-01-20T04:27:57.885Z,100479.00
2023-01-20T04:30:27.843Z,100484.00
2023-01-20T04:32:57.725Z,100492.00
2023-01-20T04:35:27.880Z,100488.00
2023-01-20T04:38:00.309Z,100497.00
2023-01-20T04:40:30.492Z,100512.00
2023-01-20T04:43:00.347Z,100511.00
2023-01-20T04:45:30.235Z,100523.00
2023-01-20T04:48:00.240Z,100519.00
2023-01-20T04:50:30.147Z,100525.00
2023-01-20T04:53:02.577Z,100536.00
2023-01-20T04:55:32.736Z,100531.00
2023-01-20T04:58:02.601Z,100528.00
2023-01-20T05:00:32.655Z,100531.00
2023-01-20T05:03:02.642Z,100537.00
2023-01-20T05:05:32.624Z,100532.00
2023-01-20T05:08:05.896Z,100536.00
2023-01-20T05:10:36.485Z,100537.00
2023-01-20T05:13:06.389Z,100538.00
2023-01-20T05:15:36.297Z,100549.00
2023-01-20T05:18:06.477Z,100552.00
2023-01-20T05:20:36.456Z,100558.00
2023-01-20T05:23:09.319Z,100564.00
2023-01-20T05:25:39.175Z,100565.00
2023-01-20T05:28:09.427Z,100571.00
2023-01-20T05:30:39.339Z,100569.00
2023-01-20T05:33:09.229Z,100587.00
2023-01-20T05:35:41.330Z,100587.00
2023-01-20T05:38:13.783Z,100586.00
2023-01-20T05:40:43.676Z,100588.00
2023-01-20T05:43:13.524Z,100596.00
2023-01-20T05:45:43.731Z,100583.00
2023-01-20T05:48:13.586Z,100592.00
2023-01-20T05:50:43.426Z,100594.00
2023-01-20T05:53:16.002Z,100593.00
2023-01-20T05:55:46.253Z,100598.00
2023-01-20T05:58:16.312Z,100607.00
2023-01-20T06:00:46.134Z,100599.00
2023-01-20T06:03:16.001Z,100608.00
2023-01-20T06:05:45.867Z,100614.00
2023-01-20T06:08:18.325Z,100625.00
2023-01-20T06:10:50.444Z,100627.00
2023-01-20T06:13:20.409Z,100626.00
2023-01-20T06:15:55.050Z,100623.00
2023-01-20T06:18:25.781Z,100634.00
2023-01-20T06:20:59.448Z,100641.00
2023-01-20T06:23:32.571Z,100647.00
2023-01-20T06:26:04.184Z,100653.00
2023-01-20T06:28:35.040Z,100661.00
2023-01-20T06:31:06.976Z,100654.00
2023-01-20T06:33:37.876Z,100666.00
2023-01-20T06:36:09.063Z,100672.00
2023-01-20T06:38:41.635Z,100680.00
2023-01-20T06:41:12.442Z,100685.00
2023-01-20T06:43:42.683Z,100689.00
2023-01-20T06:46:16.203Z,100687.00
2023-01-20T06:48:47.259Z,100703.00
2023-01-20T06:51:19.628Z,100702.00
2023-01-20T06:53:52.229Z,100706.00
2023-01-20T06:56:22.546Z,100716.00
2023-01-20T06:58:52.883Z,100715.00
2023-01-20T07:01:28.180Z,100726.00
2023-01-20T07:03:58.355Z,100718.00
2023-01-20T07:06:33.984Z,100724.00
2023-01-20T07:09:08.122Z,100732.00
2023-01-20T07:11:38.005Z,100730.00
2023-01-20T07:14:10.098Z,100727.00
2023-01-20T07:16:40.537Z,100741.00
2023-01-20T07:19:10.435Z,100746.00
2023-01-20T07:21:40.262Z,100746.00
2023-01-20T07:24:13.070Z,100748.00
2023-01-20T07:26:43.926Z,100753.00
2023-01-20T07:29:14.512Z,100750.00
2023-01-20T07:31:45.840Z,100751.00
2023-01-20T07:34:15.721Z,100756.00
2023-01-20T07:36:45.771Z,100752.00
2023-01-20T07:39:20.291Z,100752.00
2023-01-20T07:41:51.331Z,100762.00
2023-01-20T07:44:21.321Z,100760.00
2023-01-20T07:46:51.725Z,100766.00
2023-01-20T07:49:21.749Z,100769.00
2023-01-20T07:51:51.748Z,100769.00
2023-01-20T07:54:24.515Z,100775.00
2023-01-20T07:56:54.536Z,100781.00
2023-01-20T07:59:24.551Z,100789.00
2023-01-20T08:01:54.476Z,100797.00
2023-01-20T08:04:24.560Z,100791.00
2023-01-20T08:06:54.651Z,100796.00
2023-01-20T08:09:27.166Z,100803.00
2023-01-20T08:11:57.052Z,100804.00
2023-01-20T08:14:27.442Z,100808.00
2023-01-20T08:16:57.368Z,100820.00
2023-01-20T08:19:27.688Z,100813.00
2023-01-20T08:21:57.557Z,100811.00
2023-01-20T08:24:30.058Z,100815.00
2023-01-20T08:26:59.920Z,100817.00
2023-01-20T08:29:31.307Z,100818.00
2023-01-20T08:32:02.391Z,100814.00
2023-01-20T08:34:32.405Z,100819.00
2023-01-20T08:37:02.422Z,100826.00
2023-01-20T08:39:35.047Z,100824.00
2023-01-20T08:42:05.088Z,100834.00
2023-01-20T08:44:35.198Z,100844.00
2023-01-20T08:47:05.254Z,100833.00
2023-01-20T08:49:35.295Z,100838.00
2023-01-20T08:52:05.343Z,100834.00
2023-01-20T08:54:38.015Z,100844.00
2023-01-20T08:57:08.134Z,100839.00
2023-01-20T08:59:38.143Z,100843.00
2023-01-20T09:02:08.139Z,100845.00
2023-01-20T09:04:39.796Z,100852.00
2023-01-20T09:07:10.053Z,100853.00
2023-01-20T09:09:42.706Z,100861.00
2023-01-20T09:12:13.766Z,100872.00
2023-01-20T09:14:43.869Z,100879.00
2023-01-20T09:17:14.815Z,100882.00
2023-01-20T09:19:44.840Z,100885.00
2023-01-20T09:22:16.530Z,100885.00
2023-01-20T09:24:49.278Z,100891.00
2023-01-20T09:27:19.325Z,100902.00
2023-01-20T09:29:49.981Z,100908.00
2023-01-20T09:32:19.991Z,100912.00
2023-01-20T09:34:50.031Z,100907.00
2023-01-20T09:37:33.548Z,100916.00
2023-01-20T09:40:18.868Z,100914.00
2023-01-20T09:43:17.617Z,100904.00
2023-01-20T09:45:57.745Z,100914.00
2023-01-20T09:48:52.726Z,100907.00
2023-01-20T09:51:43.517Z,100914.00
2023-01-20T09:54:22.288Z,100908.00
2023-01-20T09:56:57.871Z,100921.00
2023-01-20T09:59:34.806Z,100921.00
2023-01-20T10:02:10.267Z,100925.00
2023-01-20T10:04:47.511Z,100936.00
2023-01-20T10:07:24.860Z,100933.00
2023-01-20T10:10:01.835Z,100951.00
2023-01-20T10:12:37.940Z,100944.00
2023-01-20T10:15:12.639Z,100945.00
2023-01-20T10:17:46.197Z,100938.00
2023-01-20T10:20:23.233Z,100949.00
2023-01-20T10:22:56.742Z,100953.00
2023-01-20T10:25:31.324Z,100952.00
2023-01-20T10:28:13.116Z,100961.00
2023-01-20T10:30:46.993Z,100961.00
2023-01-20T10:33:26.193Z,100953.00
2023-01-20T10:35:59.985Z,100952.00
2023-01-20T10:38:39.229Z,100956.00
2023-01-20T10:41:20.515Z,100963.00
2023-01-20T10:43:53.614Z,100965.00
2023-01-20T10:46:43.337Z,100957.00
2023-01-20T10:49:56.710Z,100962.00
2023-01-20T10:52:44.761Z,100955.00
2023-01-20T10:55:28.184Z,100960.00
2023-01-20T10:58:03.477Z,100965.00
2023-01-20T11:00:36.763Z,100968.00
2023-01-20T11:03:11.181Z,100965.00
2023-01-20T11:05:42.405Z,100967.00
2023-01-20T11:08:19.925Z,100970.00
2023-01-20T11:10:54.009Z,100966.00
2023-01-20T11:13:24.193Z,100962.00
2023-01-20T11:16:00.329Z,100973.00
2023-01-20T11:18:33.621Z,100962.00
2023-01-20T11:21:07.195Z,100969.00
2023-01-20T11:23:42.155Z,100963.00
2023-01-20T11:26:26.192Z,100971.00
2023-01-20T11:29:00.470Z,100973.00
2023-01-20T11:31:42.592Z,100976.00
2023-01-20T11:34:25.936Z,100984.00
2023-01-20T11:37:20.468Z,100970.00
2023-01-20T11:40:03.351Z,100967.00
2023-01-20T11:42:46.075Z,100977.00
2023-01-20T11:45:40.207Z,100973.00
2023-01-20T11:48:21.775Z,100979.00
2023-01-20T11:50:57.607Z,100985.00
2023-01-20T11:53:31.739Z,100990.00
2023-01-20T11:56:05.188Z,100987.00
2023-01-20T11:58:52.728Z,100998.00
2023-01-20T12:01:27.895Z,100997.00
2023-01-20T12:04:56.512Z,101000.00
2023-01-20T12:07:31.657Z,101002.00
2023-01-20T12:10:06.206Z,100999.00
2023-01-20T12:12:43.155Z,101000.00
2023-01-20T12:15:19.726Z,101005.00
2023-01-20T12:17:57.965Z,101013.00
2023-01-20T12:20:53.942Z,101014.00
2023-01-20T12:23:46.042Z,101019.00
2023-01-20T12:26:18.210Z,101024.00
2023-01-20T12:28:56.734Z,101032.00
2023-01-20T12:31:27.830Z,101031.00
2023-01-20T12:34:03.853Z,101042.00
2023-01-20T12:36:57.894Z,101038.00
2023-01-20T12:39:42.469Z,101048.00
2023-01-20T12:42:41.914Z,101062.00
2023-01-20T12:45:24.376Z,101057.00
2023-01-20T12:48:08.236Z,101064.00
2023-01-20T12:50:58.112Z,101066.00
2023-01-20T12:53:48.908Z,101064.00
2023-01-20T12:56:32.814Z,101066.00
2023-01-20T12:59:15.183Z,101074.00
2023-01-20T13:02:03.499Z,101072.00
2023-01-20T13:05:09.931Z,101080.00
2023-01-20T13:08:05.682Z,101067.00
2023-01-20T13:10:55.310Z,101081.00
2023-01-20T13:13:56.517Z,101079.00
2023-01-20T13:16:36.094Z,101085.00
2023-01-20T13:19:15.448Z,101081.00
2023-01-20T13:21:46.980Z,101088.00
2023-01-20T13:24:29.258Z,101089.00
2023-01-20T13:27:02.178Z,101090.00
2023-01-20T13:29:56.819Z,101088.00
2023-01-20T13:32:38.752Z,101088.00
2023-01-20T13:35:50.320Z,101086.00
2023-01-20T13:38:28.032Z,101090.00
2023-01-20T13:41:03.268Z,101079.00
2023-01-20T13:43:50.125Z,101091.00
2023-01-20T13:46:49.118Z,101099.00
2023-01-20T13:49:27.279Z,101106.00
2023-01-20T13:51:57.455Z,101104.00
2023-01-20T13:54:50.382Z,101104.00
2023-01-20T13:57:40.134Z,101116.00
2023-01-20T14:00:21.806Z,101113.00
2023-01-20T14:02:53.240Z,101125.00
2023-01-20T14:05:35.418Z,101120.00
2023-01-20T14:08:05.531Z,101122.00
2023-01-20T14:10:35.574Z,101133.00
2023-01-20T14:13:13.071Z,101132.00
2023-01-20T14:15:45.804Z,101131.00
2023-01-20T14:18:19.247Z,101144.00
2023-01-20T14:21:05.665Z,101144.00
2023-01-20T14:23:40.823Z,101146.00
2023-01-20T14:26:14.221Z,101155.00
2023-01-20T14:28:48.760Z,101150.00
2023-01-20T14:31:36.750Z,101156.00
2023-01-20T14:34:30.525Z,101176.00
2023-01-20T14:37:18.455Z,101177.00
2023-01-20T14:39:51.437Z,101180.00
2023-01-20T14:42:24.173Z,101177.00
2023-01-20T14:44:56.786Z,101181.00
2023-01-20T14:47:30.362Z,101192.00
2023-01-20T14:50:00.454Z,101197.00
2023-01-20T14:52:33.123Z,101196.00
2023-01-20T14:55:03.162Z,101200.00
2023-01-20T14:57:35.071Z,101202.00
2023-01-20T15:00:23.982Z,101204.00
2023-01-20T15:03:10.661Z,101213.00
2023-01-20T15:05:45.206Z,101216.00
2023-01-20T15:08:29.714Z,101229.00
2023-01-20T15:11:22.651Z,101234.00
2023-01-20T15:14:12.344Z,101238.00
2023-01-20T15:16:50.532Z,101238.00
2023-01-20T15:19:38.587Z,101232.00
2023-01-20T15:22:25.593Z,101235.00
2023-01-20T15:24:56.496Z,101245.00
2023-01-20T15:27:31.578Z,101241.00
2023-01-20T15:30:16.042Z,101244.00
2023-01-20T15:32:46.305Z,101245.00
2023-01-20T15:35:23.023Z,101252.00
2023-01-20T15:37:53.390Z,101259.00
2023-01-20T15:40:26.944Z,101259.00
2023-01-20T15:42:57.585Z,101270.00
2023-01-20T15:45:28.403Z,101280.00
2023-01-20T15:47:58.489Z,101283.00
2023-01-20T15:50:33.009Z,101290.00
2023-01-20T15:53:03.536Z,101296.00
2023-01-20T15:55:33.587Z,101303.00
2023-01-20T15:58:03.599Z,101309.00
2023-01-20T16:00:34.345Z,101299.00
2023-01-20T16:03:04.573Z,101309.00
2023-01-20T16:05:37.188Z,101310.00
2023-01-20T16:08:16.194Z,101315.00
2023-01-20T16:10:46.250Z,101320.00
2023-01-20T16:13:16.983Z,101317.00
2023-01-20T16:15:47.012Z,101314.00
2023-01-20T16:18:21.012Z,101329.00
2023-01-20T16:20:53.660Z,101333.00
2023-01-20T16:23:23.478Z,101328.00
2023-01-20T16:25:53.354Z,101330.00
2023-01-20T16:28:24.735Z,101334.00
2023-01-20T16:30:57.910Z,101331.00
2023-01-20T16:33:29.989Z,101338.00
2023-01-20T16:36:02.672Z,101341.00
2023-01-20T16:38:32.777Z,101346.00
2023-01-20T16:41:12.836Z,101350.00
2023-01-20T16:43:43.733Z,101358.00
2023-01-20T16:46:17.239Z,101359.00
2023-01-20T16:48:47.616Z,101358.00
2023-01-20T16:51:25.923Z,101360.00
2023-01-20T16:53:56.451Z,101366.00
2023-01-20T16:56:28.976Z,101375.00
2023-01-20T16:59:01.606Z,101380.00
2023-01-20T17:01:33.294Z,101384.00
2023-01-20T17:04:05.779Z,101388.00
2023-01-20T17:06:38.487Z,101388.00
2023-01-20T17:09:08.636Z,101391.00
2023-01-20T17:11:40.797Z,101388.00
2023-01-20T17:14:13.413Z,101389.00
2023-01-20T17:16:43.503Z,101396.00
2023-01-20T17:19:14.778Z,101402.00
2023-01-20T17:21:48.766Z,101398.00
2023-01-20T17:24:19.423Z,101400.00
2023-01-20T17:26:49.401Z,101406.00
2023-01-20T17:29:21.935Z,101412.00
2023-01-20T17:31:51.925Z,101411.00
2023-01-20T17:34:21.892Z,101416.00
2023-01-20T17:36:54.361Z,101412.00
2023-01-20T17:39:24.280Z,101421.00
2023-01-20T17:41:54.222Z,101428.00
2023-01-20T17:44:24.137Z,101428.00
2023-01-20T17:46:54.047Z,101425.00
2023-01-20T17:49:23.996Z,101426.00
2023-01-20T17:51:56.477Z,101436.00
2023-01-20T17:54:26.418Z,101443.00
2023-01-20T17:56:56.317Z,101436.00
2023-01-20T17:59:26.323Z,101450.00
2023-01-20T18:01:56.926Z,101453.00
2023-01-20T18:04:26.956Z,101447.00
2023-01-20T18:06:59.664Z,101457.00
2023-01-20T18:09:29.661Z,101458.00
2023-01-20T18:11:59.586Z,101469.00
2023-01-20T18:14:29.517Z,101469.00
2023-01-20T18:16:59.707Z,101467.00
2023-01-20T18:19:29.880Z,101469.00
2023-01-20T18:22:06.944Z,101479.00
2023-01-20T18:24:37.069Z,101479.00
2023-01-20T18:27:07.106Z,101486.00
2023-01-20T18:29:37.684Z,101480.00
2023-01-20T18:32:08.435Z,101479.00
2023-01-20T18:34:38.661Z,101481.00
2023-01-20T18:37:11.126Z,101483.00
2023-01-20T18:39:40.981Z,101488.00
2023-01-20T18:42:10.874Z,101489.00
2023-01-20T18:44:40.728Z,101492.00
2023-01-20T18:47:10.603Z,101493.00
2023-01-20T18:49:40.435Z,101486.00
2023-01-20T18:52:12.931Z,101494.00
2023-01-20T18:54:42.785Z,101503.00
2023-01-20T18:57:12.659Z,101498.00
2023-01-20T18:59:42.525Z,101509.00
2023-01-20T19:02:13.473Z,101503.00
2023-01-20T19:04:43.497Z,101506.00
2023-01-20T19:07:15.897Z,101511.00
2023-01-20T19:09:47.556Z,101513.00
2023-01-20T19:12:17.433Z,101514.00
2023-01-20T19:14:47.277Z,101519.00
2023-01-20T19:17:17.125Z,101519.00
2023-01-20T19:19:49.712Z,101527.00
2023-01-20T19:22:22.127Z,101530.00
2023-01-20T19:24:52.030Z,101527.00
2023-01-20T19:27:21.971Z,101527.00
2023-01-20T19:29:51.860Z,101540.00
2023-01-20T19:32:21.741Z,101544.00
2023-01-20T19:34:51.623Z,101545.00
2023-01-20T19:37:24.071Z,101543.00
2023-01-20T19:39:53.961Z,101554.00
2023-01-20T19:42:25.700Z,101548.00
2023-01-20T19:44:55.749Z,101555.00
2023-01-20T19:47:26.098Z,101548.00
2023-01-20T19:49:56.027Z,101555.00
2023-01-20T19:52:28.565Z,101550.00
2023-01-20T19:54:58.441Z,101559.00
2023-01-20T19:57:28.775Z,101560.00
2023-01-20T19:59:58.716Z,101566.00
2023-01-20T20:02:28.922Z,101565.00
2023-01-20T20:04:58.763Z,101571.00
2023-01-20T20:07:31.222Z,101579.00
2023-01-20T20:10:01.063Z,101580.00
2023-01-20T20:12:31.810Z,101581.00
2023-01-20T20:15:02.061Z,101576.00
2023-01-20T20:17:31.929Z,101585.00
2023-01-20T20:20:01.852Z,101584.00
2023-01-20T20:22:34.857Z,101580.00
2023-01-20T20:25:05.751Z,101582.00
2023-01-20T20:27:35.633Z,101587.00
2023-01-20T20:30:06.942Z,101596.00
2023-01-20T20:32:36.846Z,101603.00
2023-01-20T20:35:07.922Z,101594.00
2023-01-20T20:37:40.444Z,101600.00
2023-01-20T20:40:13.328Z,101603.00
2023-01-20T20:42:43.319Z,101616.00
2023-01-20T20:45:14.533Z,101612.00
2023-01-20T20:47:44.390Z,101612.00
2023-01-20T20:50:16.439Z,101619.00
2023-01-20T20:52:50.702Z,101616.00
2023-01-20T20:55:20.741Z,101628.00
2023-01-20T20:57:50.617Z,101627.00
2023-01-20T21:00:23.634Z,101618.00
2023-01-20T21:02:53.669Z,101626.00
2023-01-20T21:05:23.862Z,101637.00
2023-01-20T21:07:56.308Z,101644.00
2023-01-20T21:10:26.167Z,101648.00
2023-01-20T21:12:56.035Z,101645.00
2023-01-20T21:15:25.900Z,101651.00
2023-01-20T21:17:55.797Z,101654.00
2023-01-20T21:20:25.697Z,101660.00
2023-01-20T21:22:58.107Z,101657.00
2023-01-20T21:25:28.121Z,101659.00
2023-01-20T21:27:59.073Z,101661.00
2023-01-20T21:30:28.972Z,101661.00
2023-01-20T21:32:58.836Z,101669.00
2023-01-20T21:35:28.715Z,101670.00
2023-01-20T21:38:01.138Z,101677.00
2023-01-20T21:40:32.801Z,101674.00
2023-01-20T21:43:32.598Z,101680.00
2023-01-20T21:45:59.888Z,101673.00
2023-01-20T21:48:42.237Z,101673.00
2023-01-20T21:51:27.242Z,101673.00
2023-01-20T21:53:59.499Z,101682.00
2023-01-20T21:56:29.445Z,101691.00
2023-01-20T21:58:59.292Z,101680.00
2023-01-20T22:01:29.215Z,101694.00
2023-01-20T22:03:59.085Z,101701.00
2023-01-20T22:06:29.079Z,101709.00
2023-01-20T22:09:01.774Z,101704.00
2023-01-20T22:11:31.676Z,101704.00
2023-01-20T22:14:01.742Z,101708.00
2023-01-20T22:16:32.196Z,101706.00
2023-01-20T22:19:02.136Z,101712.00
2023-01-20T22:21:31.996Z,101714.00
2023-01-20T22:24:05.353Z,101712.00
2023-01-20T22:26:35.234Z,101715.00
2023-01-20T22:29:05.166Z,101709.00
2023-01-20T22:31:35.461Z,101715.00
2023-01-20T22:34:06.455Z,101728.00
2023-01-20T22:36:37.145Z,101731.00
2023-01-20T22:39:10.177Z,101730.00
2023-01-20T22:41:40.040Z,101735.00
2023-01-20T22:44:10.217Z,101741.00
2023-01-20T22:46:40.103Z,101738.00
2023-01-20T22:49:09.970Z,101742.00
2023-01-20T22:51:40.072Z,101748.00
2023-01-20T22:54:13.467Z,101742.00
2023-01-20T22:56:43.340Z,101743.00
2023-01-20T22:59:15.355Z,101755.00
2023-01-20T23:01:45.227Z,101749.00
2023-01-20T23:04:15.606Z,101750.00
2023-01-20T23:06:45.480Z,101754.00
2023-01-20T23:09:17.916Z,101750.00
2023-01-20T23:11:48.452Z,101755.00
2023-01-20T23:14:38.348Z,101755.00
2023-01-20T23:17:08.204Z,101762.00
2023-01-20T23:19:38.069Z,101760.00
2023-01-20T23:22:07.945Z,101760.00
2023-01-20T23:24:40.369Z,101764.00
2023-01-20T23:27:10.250Z,101762.00
2023-01-20T23:29:40.130Z,101765.00
2023-01-20T23:32:10.730Z,101759.00
2023-01-20T23:34:40.566Z,101763.00
2023-01-20T23:37:10.463Z,101756.00
2023-01-20T23:39:42.917Z,101767.00
2023-01-20T23:42:12.771Z,101759.00
2023-01-20T23:44:42.637Z,101765.00
2023-01-20T23:47:12.915Z,101754.00
2023-01-20T23:49:43.630Z,101766.00
2023-01-20T23:52:13.627Z,101765.00
2023-01-20T23:54:46.128Z,101764.00
2023-01-20T23:57:16.022Z,101764.00
2023-01-20T23:59:45.902Z,101766.00
